sensor_id;sensor_type;location;lat;lon;timestamp;P1;durP1;ratioP1;P2;durP2;ratioP2
59093;SDS011;44880;52.814;18.270;2023-02-28T00:01:14;24.60;;;10.90;;
59093;SDS011;44880;52.814;18.270;2023-02-28T00:03:44;25.90;;;10.00;;
59093;SDS011;44880;52.814;18.270;2023-02-28T00:06:13;23.10;;;9.90;;
59093;SDS011;44880;52.814;18.270;2023-02-28T00:08:42;23.90;;;9.00;;
59093;SDS011;44880;52.814;18.270;2023-02-28T00:11:13;21.90;;;9.30;;
59093;SDS011;44880;52.814;18.270;2023-02-28T00:13:43;19.60;;;9.40;;
59093;SDS011;44880;52.814;18.270;2023-02-28T00:16:15;22.40;;;10.00;;
59093;SDS011;44880;52.814;18.270;2023-02-28T00:18:45;25.60;;;10.40;;
59093;SDS011;44880;52.814;18.270;2023-02-28T00:21:15;20.80;;;8.90;;
59093;SDS011;44880;52.814;18.270;2023-02-28T00:23:45;20.40;;;9.00;;
59093;SDS011;44880;52.814;18.270;2023-02-28T00:26:14;23.30;;;9.80;;
59093;SDS011;44880;52.814;18.270;2023-02-28T00:28:45;25.50;;;11.40;;
59093;SDS011;44880;52.814;18.270;2023-02-28T00:31:15;27.60;;;13.00;;
59093;SDS011;44880;52.814;18.270;2023-02-28T00:33:44;30.00;;;14.60;;
59093;SDS011;44880;52.814;18.270;2023-02-28T00:36:15;35.30;;;14.80;;
59093;SDS011;44880;52.814;18.270;2023-02-28T00:38:44;31.70;;;14.00;;
59093;SDS011;44880;52.814;18.270;2023-02-28T00:41:13;27.70;;;13.60;;
59093;SDS011;44880;52.814;18.270;2023-02-28T00:43:43;25.70;;;13.10;;
59093;SDS011;44880;52.814;18.270;2023-02-28T00:46:12;23.60;;;11.80;;
59093;SDS011;44880;52.814;18.270;2023-02-28T00:48:41;24.00;;;10.90;;
59093;SDS011;44880;52.814;18.270;2023-02-28T00:51:10;22.70;;;10.80;;
59093;SDS011;44880;52.814;18.270;2023-02-28T00:53:39;23.40;;;10.40;;
59093;SDS011;44880;52.814;18.270;2023-02-28T00:56:09;25.40;;;11.20;;
59093;SDS011;44880;52.814;18.270;2023-02-28T01:01:09;28.40;;;10.70;;
59093;SDS011;44880;52.814;18.270;2023-02-28T01:03:38;25.50;;;10.90;;
59093;SDS011;44880;52.814;18.270;2023-02-28T01:06:08;25.30;;;10.70;;
59093;SDS011;44880;52.814;18.270;2023-02-28T01:08:39;24.70;;;10.50;;
59093;SDS011;44880;52.814;18.270;2023-02-28T01:11:09;22.50;;;10.80;;
59093;SDS011;44880;52.814;18.270;2023-02-28T01:13:41;23.20;;;11.10;;
59093;SDS011;44880;52.814;18.270;2023-02-28T01:18:40;22.70;;;10.60;;
59093;SDS011;44880;52.814;18.270;2023-02-28T01:21:10;21.40;;;10.20;;
59093;SDS011;44880;52.814;18.270;2023-02-28T01:23:41;23.00;;;11.00;;
59093;SDS011;44880;52.814;18.270;2023-02-28T01:26:12;31.30;;;13.20;;
59093;SDS011;44880;52.814;18.270;2023-02-28T01:28:42;37.50;;;16.30;;
59093;SDS011;44880;52.814;18.270;2023-02-28T01:31:11;40.20;;;19.50;;
59093;SDS011;44880;52.814;18.270;2023-02-28T01:33:41;40.30;;;18.60;;
59093;SDS011;44880;52.814;18.270;2023-02-28T01:36:12;53.40;;;23.20;;
59093;SDS011;44880;52.814;18.270;2023-02-28T01:38:43;76.60;;;32.10;;
59093;SDS011;44880;52.814;18.270;2023-02-28T01:41:16;54.10;;;24.30;;
59093;SDS011;44880;52.814;18.270;2023-02-28T01:43:55;45.90;;;21.20;;
59093;SDS011;44880;52.814;18.270;2023-02-28T01:46:26;42.00;;;19.30;;
59093;SDS011;44880;52.814;18.270;2023-02-28T01:48:57;34.60;;;15.70;;
59093;SDS011;44880;52.814;18.270;2023-02-28T01:51:29;35.20;;;15.10;;
59093;SDS011;44880;52.814;18.270;2023-02-28T01:54:02;33.60;;;15.40;;
59093;SDS011;44880;52.814;18.270;2023-02-28T01:56:41;36.40;;;16.50;;
59093;SDS011;44880;52.814;18.270;2023-02-28T01:59:14;36.30;;;15.80;;
59093;SDS011;44880;52.814;18.270;2023-02-28T02:01:50;34.10;;;16.30;;
59093;SDS011;44880;52.814;18.270;2023-02-28T02:04:19;36.00;;;18.00;;
59093;SDS011;44880;52.814;18.270;2023-02-28T02:06:50;44.30;;;18.70;;
59093;SDS011;44880;52.814;18.270;2023-02-28T02:09:20;54.40;;;22.60;;
59093;SDS011;44880;52.814;18.270;2023-02-28T02:11:50;39.10;;;18.20;;
59093;SDS011;44880;52.814;18.270;2023-02-28T02:14:29;38.40;;;17.40;;
59093;SDS011;44880;52.814;18.270;2023-02-28T02:17:07;33.10;;;15.10;;
59093;SDS011;44880;52.814;18.270;2023-02-28T02:22:57;43.30;;;21.10;;
59093;SDS011;44880;52.814;18.270;2023-02-28T02:25:43;51.30;;;24.80;;
59093;SDS011;44880;52.814;18.270;2023-02-28T02:28:25;70.70;;;30.50;;
59093;SDS011;44880;52.814;18.270;2023-02-28T02:31:28;61.90;;;28.30;;
59093;SDS011;44880;52.814;18.270;2023-02-28T02:37:29;51.70;;;25.00;;
59093;SDS011;44880;52.814;18.270;2023-02-28T02:40:05;44.70;;;19.40;;
59093;SDS011;44880;52.814;18.270;2023-02-28T02:42:41;40.70;;;20.70;;
59093;SDS011;44880;52.814;18.270;2023-02-28T02:45:16;38.60;;;19.60;;
59093;SDS011;44880;52.814;18.270;2023-02-28T02:47:49;44.60;;;21.70;;
59093;SDS011;44880;52.814;18.270;2023-02-28T02:50:21;44.70;;;20.70;;
59093;SDS011;44880;52.814;18.270;2023-02-28T02:52:55;38.00;;;20.70;;
59093;SDS011;44880;52.814;18.270;2023-02-28T02:55:25;51.30;;;23.70;;
59093;SDS011;44880;52.814;18.270;2023-02-28T02:57:55;48.20;;;22.50;;
59093;SDS011;44880;52.814;18.270;2023-02-28T03:00:37;46.40;;;22.40;;
59093;SDS011;44880;52.814;18.270;2023-02-28T03:03:10;43.90;;;22.00;;
59093;SDS011;44880;52.814;18.270;2023-02-28T03:05:41;43.00;;;21.80;;
59093;SDS011;44880;52.814;18.270;2023-02-28T03:08:12;44.30;;;22.50;;
59093;SDS011;44880;52.814;18.270;2023-02-28T03:10:42;47.00;;;21.60;;
59093;SDS011;44880;52.814;18.270;2023-02-28T03:16:34;60.30;;;28.30;;
59093;SDS011;44880;52.814;18.270;2023-02-28T03:19:11;67.20;;;31.60;;
59093;SDS011;44880;52.814;18.270;2023-02-28T03:22:00;61.60;;;28.20;;
59093;SDS011;44880;52.814;18.270;2023-02-28T03:24:39;57.60;;;27.90;;
59093;SDS011;44880;52.814;18.270;2023-02-28T03:27:15;53.70;;;24.50;;
59093;SDS011;44880;52.814;18.270;2023-02-28T03:29:47;45.90;;;24.10;;
59093;SDS011;44880;52.814;18.270;2023-02-28T03:32:21;48.20;;;24.40;;
59093;SDS011;44880;52.814;18.270;2023-02-28T03:34:55;48.30;;;24.30;;
59093;SDS011;44880;52.814;18.270;2023-02-28T03:37:28;47.60;;;24.90;;
59093;SDS011;44880;52.814;18.270;2023-02-28T03:39:59;43.80;;;23.20;;
59093;SDS011;44880;52.814;18.270;2023-02-28T03:42:33;38.90;;;19.70;;
59093;SDS011;44880;52.814;18.270;2023-02-28T03:45:05;41.70;;;21.10;;
59093;SDS011;44880;52.814;18.270;2023-02-28T03:47:39;39.90;;;20.10;;
59093;SDS011;44880;52.814;18.270;2023-02-28T03:50:12;51.60;;;22.90;;
59093;SDS011;44880;52.814;18.270;2023-02-28T03:52:47;43.60;;;20.30;;
59093;SDS011;44880;52.814;18.270;2023-02-28T03:55:19;41.00;;;19.00;;
59093;SDS011;44880;52.814;18.270;2023-02-28T03:57:53;44.90;;;21.00;;
59093;SDS011;44880;52.814;18.270;2023-02-28T04:00:27;36.80;;;18.70;;
59093;SDS011;44880;52.814;18.270;2023-02-28T04:02:58;41.10;;;19.30;;
59093;SDS011;44880;52.814;18.270;2023-02-28T04:05:27;38.60;;;18.60;;
59093;SDS011;44880;52.814;18.270;2023-02-28T04:08:04;45.20;;;20.30;;
59093;SDS011;44880;52.814;18.270;2023-02-28T04:10:34;56.90;;;26.40;;
59093;SDS011;44880;52.814;18.270;2023-02-28T04:13:03;57.70;;;26.90;;
59093;SDS011;44880;52.814;18.270;2023-02-28T04:15:33;46.70;;;23.60;;
59093;SDS011;44880;52.814;18.270;2023-02-28T04:18:02;45.00;;;23.30;;
59093;SDS011;44880;52.814;18.270;2023-02-28T04:20:31;47.50;;;20.70;;
59093;SDS011;44880;52.814;18.270;2023-02-28T04:23:00;42.80;;;20.90;;
59093;SDS011;44880;52.814;18.270;2023-02-28T04:25:29;37.00;;;19.10;;
59093;SDS011;44880;52.814;18.270;2023-02-28T04:27:59;34.50;;;17.80;;
59093;SDS011;44880;52.814;18.270;2023-02-28T04:30:28;35.00;;;20.00;;
59093;SDS011;44880;52.814;18.270;2023-02-28T04:32:59;35.10;;;18.50;;
59093;SDS011;44880;52.814;18.270;2023-02-28T04:35:29;38.10;;;18.50;;
59093;SDS011;44880;52.814;18.270;2023-02-28T04:37:58;29.80;;;17.30;;
59093;SDS011;44880;52.814;18.270;2023-02-28T04:40:27;39.50;;;18.40;;
59093;SDS011;44880;52.814;18.270;2023-02-28T04:42:56;36.20;;;17.50;;
59093;SDS011;44880;52.814;18.270;2023-02-28T04:45:26;35.60;;;17.10;;
59093;SDS011;44880;52.814;18.270;2023-02-28T04:47:57;33.70;;;15.70;;
59093;SDS011;44880;52.814;18.270;2023-02-28T04:50:26;34.20;;;15.80;;
59093;SDS011;44880;52.814;18.270;2023-02-28T04:52:55;30.40;;;14.70;;
59093;SDS011;44880;52.814;18.270;2023-02-28T04:55:25;35.40;;;16.60;;
59093;SDS011;44880;52.814;18.270;2023-02-28T04:57:54;31.40;;;15.30;;
59093;SDS011;44880;52.814;18.270;2023-02-28T05:00:25;40.60;;;18.50;;
59093;SDS011;44880;52.814;18.270;2023-02-28T05:02:54;47.90;;;21.80;;
59093;SDS011;44880;52.814;18.270;2023-02-28T05:05:23;44.60;;;23.30;;
59093;SDS011;44880;52.814;18.270;2023-02-28T05:07:52;48.40;;;23.30;;
59093;SDS011;44880;52.814;18.270;2023-02-28T05:10:22;45.70;;;22.30;;
59093;SDS011;44880;52.814;18.270;2023-02-28T05:12:52;39.70;;;21.80;;
59093;SDS011;44880;52.814;18.270;2023-02-28T05:15:21;37.10;;;18.90;;
59093;SDS011;44880;52.814;18.270;2023-02-28T05:17:52;33.70;;;15.50;;
59093;SDS011;44880;52.814;18.270;2023-02-28T05:20:21;30.90;;;16.10;;
59093;SDS011;44880;52.814;18.270;2023-02-28T05:22:50;36.10;;;15.80;;
59093;SDS011;44880;52.814;18.270;2023-02-28T05:25:20;31.40;;;16.40;;
59093;SDS011;44880;52.814;18.270;2023-02-28T05:27:50;31.00;;;15.30;;
59093;SDS011;44880;52.814;18.270;2023-02-28T05:30:19;34.40;;;17.10;;
59093;SDS011;44880;52.814;18.270;2023-02-28T05:32:50;31.90;;;15.80;;
59093;SDS011;44880;52.814;18.270;2023-02-28T05:35:20;29.60;;;14.50;;
59093;SDS011;44880;52.814;18.270;2023-02-28T05:37:49;35.80;;;16.40;;
59093;SDS011;44880;52.814;18.270;2023-02-28T05:40:18;34.70;;;16.60;;
59093;SDS011;44880;52.814;18.270;2023-02-28T05:42:48;30.90;;;15.20;;
59093;SDS011;44880;52.814;18.270;2023-02-28T05:45:18;36.90;;;16.10;;
59093;SDS011;44880;52.814;18.270;2023-02-28T05:47:48;39.40;;;17.00;;
59093;SDS011;44880;52.814;18.270;2023-02-28T05:50:17;34.70;;;16.20;;
59093;SDS011;44880;52.814;18.270;2023-02-28T05:52:49;45.10;;;20.20;;
59093;SDS011;44880;52.814;18.270;2023-02-28T05:55:19;44.70;;;20.70;;
59093;SDS011;44880;52.814;18.270;2023-02-28T05:57:48;37.70;;;19.20;;
59093;SDS011;44880;52.814;18.270;2023-02-28T06:00:18;40.40;;;18.40;;
59093;SDS011;44880;52.814;18.270;2023-02-28T06:02:48;34.20;;;17.40;;
59093;SDS011;44880;52.814;18.270;2023-02-28T06:05:18;38.30;;;16.40;;
59093;SDS011;44880;52.814;18.270;2023-02-28T06:07:49;33.10;;;17.00;;
59093;SDS011;44880;52.814;18.270;2023-02-28T06:10:18;35.60;;;17.70;;
59093;SDS011;44880;52.814;18.270;2023-02-28T06:12:47;33.40;;;15.60;;
59093;SDS011;44880;52.814;18.270;2023-02-28T06:15:17;39.80;;;20.10;;
59093;SDS011;44880;52.814;18.270;2023-02-28T06:17:48;33.50;;;18.60;;
59093;SDS011;44880;52.814;18.270;2023-02-28T06:20:19;37.90;;;19.70;;
59093;SDS011;44880;52.814;18.270;2023-02-28T06:22:48;35.20;;;18.80;;
59093;SDS011;44880;52.814;18.270;2023-02-28T06:25:18;35.20;;;17.60;;
59093;SDS011;44880;52.814;18.270;2023-02-28T06:27:57;40.00;;;18.50;;
59093;SDS011;44880;52.814;18.270;2023-02-28T06:30:26;37.20;;;17.90;;
59093;SDS011;44880;52.814;18.270;2023-02-28T06:32:58;38.60;;;18.80;;
59093;SDS011;44880;52.814;18.270;2023-02-28T06:35:27;35.90;;;18.90;;
59093;SDS011;44880;52.814;18.270;2023-02-28T06:37:57;37.30;;;19.80;;
59093;SDS011;44880;52.814;18.270;2023-02-28T06:40:34;35.40;;;18.90;;
59093;SDS011;44880;52.814;18.270;2023-02-28T06:43:04;39.70;;;20.40;;
59093;SDS011;44880;52.814;18.270;2023-02-28T06:45:34;39.80;;;20.50;;
59093;SDS011;44880;52.814;18.270;2023-02-28T06:48:03;37.40;;;20.20;;
59093;SDS011;44880;52.814;18.270;2023-02-28T06:50:33;41.60;;;21.80;;
59093;SDS011;44880;52.814;18.270;2023-02-28T06:53:02;40.50;;;20.30;;
59093;SDS011;44880;52.814;18.270;2023-02-28T06:55:32;37.00;;;20.20;;
59093;SDS011;44880;52.814;18.270;2023-02-28T06:58:01;36.50;;;20.50;;
59093;SDS011;44880;52.814;18.270;2023-02-28T07:00:40;53.00;;;26.90;;
59093;SDS011;44880;52.814;18.270;2023-02-28T07:03:11;65.10;;;31.30;;
59093;SDS011;44880;52.814;18.270;2023-02-28T07:05:42;67.90;;;32.50;;
59093;SDS011;44880;52.814;18.270;2023-02-28T07:08:12;63.70;;;33.10;;
59093;SDS011;44880;52.814;18.270;2023-02-28T07:10:41;65.70;;;36.90;;
59093;SDS011;44880;52.814;18.270;2023-02-28T07:13:13;58.60;;;33.70;;
59093;SDS011;44880;52.814;18.270;2023-02-28T07:15:42;55.20;;;30.60;;
59093;SDS011;44880;52.814;18.270;2023-02-28T07:18:11;50.00;;;29.50;;
59093;SDS011;44880;52.814;18.270;2023-02-28T07:20:41;46.80;;;24.90;;
59093;SDS011;44880;52.814;18.270;2023-02-28T07:23:10;47.10;;;23.70;;
59093;SDS011;44880;52.814;18.270;2023-02-28T07:25:39;44.00;;;23.80;;
59093;SDS011;44880;52.814;18.270;2023-02-28T07:28:09;50.00;;;27.50;;
59093;SDS011;44880;52.814;18.270;2023-02-28T07:30:38;48.50;;;25.70;;
59093;SDS011;44880;52.814;18.270;2023-02-28T07:33:10;46.30;;;26.60;;
59093;SDS011;44880;52.814;18.270;2023-02-28T07:35:40;53.30;;;29.70;;
59093;SDS011;44880;52.814;18.270;2023-02-28T07:38:09;59.00;;;31.20;;
59093;SDS011;44880;52.814;18.270;2023-02-28T07:40:40;59.30;;;33.00;;
59093;SDS011;44880;52.814;18.270;2023-02-28T07:43:10;64.50;;;35.90;;
59093;SDS011;44880;52.814;18.270;2023-02-28T07:45:39;61.40;;;33.80;;
59093;SDS011;44880;52.814;18.270;2023-02-28T07:48:08;50.70;;;28.80;;
59093;SDS011;44880;52.814;18.270;2023-02-28T07:50:38;57.90;;;31.60;;
59093;SDS011;44880;52.814;18.270;2023-02-28T07:53:07;61.90;;;34.50;;
59093;SDS011;44880;52.814;18.270;2023-02-28T07:55:37;60.80;;;34.00;;
59093;SDS011;44880;52.814;18.270;2023-02-28T07:58:06;53.30;;;32.70;;
59093;SDS011;44880;52.814;18.270;2023-02-28T08:00:35;52.90;;;32.10;;
59093;SDS011;44880;52.814;18.270;2023-02-28T08:03:05;59.00;;;36.50;;
59093;SDS011;44880;52.814;18.270;2023-02-28T08:05:38;60.50;;;36.10;;
59093;SDS011;44880;52.814;18.270;2023-02-28T08:08:08;49.30;;;29.50;;
59093;SDS011;44880;52.814;18.270;2023-02-28T08:10:37;53.20;;;31.10;;
59093;SDS011;44880;52.814;18.270;2023-02-28T08:13:07;49.60;;;29.10;;
59093;SDS011;44880;52.814;18.270;2023-02-28T08:15:36;53.90;;;30.90;;
59093;SDS011;44880;52.814;18.270;2023-02-28T08:18:06;46.20;;;26.70;;
59093;SDS011;44880;52.814;18.270;2023-02-28T08:20:36;45.20;;;28.20;;
59093;SDS011;44880;52.814;18.270;2023-02-28T08:23:06;45.10;;;28.50;;
59093;SDS011;44880;52.814;18.270;2023-02-28T08:25:35;46.30;;;28.30;;
59093;SDS011;44880;52.814;18.270;2023-02-28T08:28:05;52.60;;;29.80;;
59093;SDS011;44880;52.814;18.270;2023-02-28T08:30:34;46.90;;;25.80;;
59093;SDS011;44880;52.814;18.270;2023-02-28T08:33:04;44.60;;;25.10;;
59093;SDS011;44880;52.814;18.270;2023-02-28T08:35:36;42.90;;;25.30;;
59093;SDS011;44880;52.814;18.270;2023-02-28T08:38:05;35.70;;;23.70;;
59093;SDS011;44880;52.814;18.270;2023-02-28T08:40:35;38.60;;;23.50;;
59093;SDS011;44880;52.814;18.270;2023-02-28T08:43:05;37.30;;;23.80;;
59093;SDS011;44880;52.814;18.270;2023-02-28T08:45:34;43.60;;;24.40;;
59093;SDS011;44880;52.814;18.270;2023-02-28T08:48:04;39.90;;;23.40;;
59093;SDS011;44880;52.814;18.270;2023-02-28T08:50:33;40.90;;;23.20;;
59093;SDS011;44880;52.814;18.270;2023-02-28T08:53:06;41.60;;;25.00;;
59093;SDS011;44880;52.814;18.270;2023-02-28T08:55:39;35.20;;;21.50;;
59093;SDS011;44880;52.814;18.270;2023-02-28T08:58:08;32.50;;;19.40;;
59093;SDS011;44880;52.814;18.270;2023-02-28T09:00:37;32.60;;;19.30;;
59093;SDS011;44880;52.814;18.270;2023-02-28T09:03:07;29.20;;;17.50;;
59093;SDS011;44880;52.814;18.270;2023-02-28T09:05:37;32.00;;;20.40;;
59093;SDS011;44880;52.814;18.270;2023-02-28T09:08:06;31.60;;;20.30;;
59093;SDS011;44880;52.814;18.270;2023-02-28T09:10:35;33.00;;;20.50;;
59093;SDS011;44880;52.814;18.270;2023-02-28T09:13:05;31.50;;;19.10;;
59093;SDS011;44880;52.814;18.270;2023-02-28T09:15:40;30.20;;;18.60;;
59093;SDS011;44880;52.814;18.270;2023-02-28T09:18:10;26.30;;;15.50;;
59093;SDS011;44880;52.814;18.270;2023-02-28T09:20:40;26.20;;;15.30;;
59093;SDS011;44880;52.814;18.270;2023-02-28T09:23:10;26.30;;;13.70;;
59093;SDS011;44880;52.814;18.270;2023-02-28T09:25:45;22.30;;;12.80;;
59093;SDS011;44880;52.814;18.270;2023-02-28T09:28:15;25.40;;;15.20;;
59093;SDS011;44880;52.814;18.270;2023-02-28T09:30:45;19.30;;;10.70;;
59093;SDS011;44880;52.814;18.270;2023-02-28T09:33:16;18.70;;;9.90;;
59093;SDS011;44880;52.814;18.270;2023-02-28T09:35:47;13.50;;;6.50;;
59093;SDS011;44880;52.814;18.270;2023-02-28T09:40:48;15.30;;;7.70;;
59093;SDS011;44880;52.814;18.270;2023-02-28T09:43:20;13.50;;;6.40;;
59093;SDS011;44880;52.814;18.270;2023-02-28T09:46:05;12.60;;;7.10;;
59093;SDS011;44880;52.814;18.270;2023-02-28T09:49:10;17.60;;;8.50;;
59093;SDS011;44880;52.814;18.270;2023-02-28T09:51:47;14.50;;;6.40;;
59093;SDS011;44880;52.814;18.270;2023-02-28T09:54:20;14.60;;;5.90;;
59093;SDS011;44880;52.814;18.270;2023-02-28T09:56:56;15.50;;;7.90;;
59093;SDS011;44880;52.814;18.270;2023-02-28T09:59:54;14.10;;;7.10;;
59093;SDS011;44880;52.814;18.270;2023-02-28T10:02:44;16.50;;;7.90;;
59093;SDS011;44880;52.814;18.270;2023-02-28T10:05:20;16.80;;;8.20;;
59093;SDS011;44880;52.814;18.270;2023-02-28T10:07:56;15.80;;;7.70;;
59093;SDS011;44880;52.814;18.270;2023-02-28T10:10:34;14.20;;;6.10;;
59093;SDS011;44880;52.814;18.270;2023-02-28T10:13:12;13.20;;;6.30;;
59093;SDS011;44880;52.814;18.270;2023-02-28T10:15:48;12.20;;;5.50;;
59093;SDS011;44880;52.814;18.270;2023-02-28T10:18:21;12.30;;;5.40;;
59093;SDS011;44880;52.814;18.270;2023-02-28T10:20:54;12.60;;;6.20;;
59093;SDS011;44880;52.814;18.270;2023-02-28T10:23:31;12.20;;;5.30;;
59093;SDS011;44880;52.814;18.270;2023-02-28T10:26:08;12.80;;;5.10;;
59093;SDS011;44880;52.814;18.270;2023-02-28T10:28:40;11.00;;;4.40;;
59093;SDS011;44880;52.814;18.270;2023-02-28T10:31:11;12.60;;;4.70;;
59093;SDS011;44880;52.814;18.270;2023-02-28T10:33:43;9.70;;;4.00;;
59093;SDS011;44880;52.814;18.270;2023-02-28T10:36:14;10.50;;;3.90;;
59093;SDS011;44880;52.814;18.270;2023-02-28T10:38:45;11.40;;;4.40;;
59093;SDS011;44880;52.814;18.270;2023-02-28T10:41:16;12.70;;;5.40;;
59093;SDS011;44880;52.814;18.270;2023-02-28T10:44:11;11.60;;;5.30;;
59093;SDS011;44880;52.814;18.270;2023-02-28T10:46:42;10.70;;;5.00;;
59093;SDS011;44880;52.814;18.270;2023-02-28T10:49:14;11.00;;;5.40;;
59093;SDS011;44880;52.814;18.270;2023-02-28T10:51:45;13.10;;;5.00;;
59093;SDS011;44880;52.814;18.270;2023-02-28T10:54:16;12.90;;;5.80;;
59093;SDS011;44880;52.814;18.270;2023-02-28T10:57:18;12.40;;;4.90;;
59093;SDS011;44880;52.814;18.270;2023-02-28T10:59:51;11.20;;;5.00;;
59093;SDS011;44880;52.814;18.270;2023-02-28T11:02:30;13.30;;;5.90;;
59093;SDS011;44880;52.814;18.270;2023-02-28T11:07:56;10.60;;;5.00;;
59093;SDS011;44880;52.814;18.270;2023-02-28T11:10:30;11.70;;;5.40;;
59093;SDS011;44880;52.814;18.270;2023-02-28T11:13:05;11.50;;;5.40;;
59093;SDS011;44880;52.814;18.270;2023-02-28T11:15:34;12.20;;;4.90;;
59093;SDS011;44880;52.814;18.270;2023-02-28T11:18:06;11.60;;;4.60;;
59093;SDS011;44880;52.814;18.270;2023-02-28T11:20:50;12.20;;;5.10;;
59093;SDS011;44880;52.814;18.270;2023-02-28T11:23:21;12.10;;;5.40;;
59093;SDS011;44880;52.814;18.270;2023-02-28T11:25:51;11.40;;;4.90;;
59093;SDS011;44880;52.814;18.270;2023-02-28T11:28:25;11.70;;;5.40;;
59093;SDS011;44880;52.814;18.270;2023-02-28T11:31:15;13.70;;;6.20;;
59093;SDS011;44880;52.814;18.270;2023-02-28T11:33:48;13.20;;;5.90;;
59093;SDS011;44880;52.814;18.270;2023-02-28T11:36:31;15.20;;;7.10;;
59093;SDS011;44880;52.814;18.270;2023-02-28T11:39:11;15.10;;;6.70;;
59093;SDS011;44880;52.814;18.270;2023-02-28T11:41:46;14.30;;;7.50;;
59093;SDS011;44880;52.814;18.270;2023-02-28T11:44:51;16.30;;;7.80;;
59093;SDS011;44880;52.814;18.270;2023-02-28T11:47:29;15.00;;;7.60;;
59093;SDS011;44880;52.814;18.270;2023-02-28T11:50:07;17.10;;;7.90;;
59093;SDS011;44880;52.814;18.270;2023-02-28T11:52:48;15.40;;;7.80;;
59093;SDS011;44880;52.814;18.270;2023-02-28T11:55:23;17.60;;;7.80;;
59093;SDS011;44880;52.814;18.270;2023-02-28T12:00:59;17.90;;;8.50;;
59093;SDS011;44880;52.814;18.270;2023-02-28T12:03:45;16.50;;;8.60;;
59093;SDS011;44880;52.814;18.270;2023-02-28T12:11:50;18.00;;;8.10;;
59093;SDS011;44880;52.814;18.270;2023-02-28T12:17:00;17.80;;;9.00;;
59093;SDS011;44880;52.814;18.270;2023-02-28T12:22:25;15.50;;;7.90;;
59093;SDS011;44880;52.814;18.270;2023-02-28T12:28:13;15.70;;;7.40;;
59093;SDS011;44880;52.814;18.270;2023-02-28T12:30:49;18.90;;;8.70;;
59093;SDS011;44880;52.814;18.270;2023-02-28T12:33:24;15.50;;;7.70;;
59093;SDS011;44880;52.814;18.270;2023-02-28T12:35:57;19.00;;;9.10;;
59093;SDS011;44880;52.814;18.270;2023-02-28T12:38:29;14.60;;;7.80;;
59093;SDS011;44880;52.814;18.270;2023-02-28T12:41:05;16.10;;;7.50;;
59093;SDS011;44880;52.814;18.270;2023-02-28T12:43:40;16.60;;;7.10;;
59093;SDS011;44880;52.814;18.270;2023-02-28T12:46:14;13.80;;;6.30;;
59093;SDS011;44880;52.814;18.270;2023-02-28T12:48:50;18.80;;;9.40;;
59093;SDS011;44880;52.814;18.270;2023-02-28T12:51:24;15.00;;;6.90;;
59093;SDS011;44880;52.814;18.270;2023-02-28T12:53:57;15.60;;;7.20;;
59093;SDS011;44880;52.814;18.270;2023-02-28T12:56:32;14.70;;;6.80;;
59093;SDS011;44880;52.814;18.270;2023-02-28T12:59:09;15.50;;;7.30;;
59093;SDS011;44880;52.814;18.270;2023-02-28T13:04:56;14.00;;;6.70;;
59093;SDS011;44880;52.814;18.270;2023-02-28T13:10:55;17.20;;;7.30;;
59093;SDS011;44880;52.814;18.270;2023-02-28T13:13:28;12.70;;;5.40;;
59093;SDS011;44880;52.814;18.270;2023-02-28T13:15:59;14.30;;;6.50;;
59093;SDS011;44880;52.814;18.270;2023-02-28T13:18:35;13.60;;;6.80;;
59093;SDS011;44880;52.814;18.270;2023-02-28T13:21:07;12.70;;;5.90;;
59093;SDS011;44880;52.814;18.270;2023-02-28T13:23:40;16.10;;;7.20;;
59093;SDS011;44880;52.814;18.270;2023-02-28T13:29:29;14.50;;;6.50;;
59093;SDS011;44880;52.814;18.270;2023-02-28T13:32:20;14.50;;;6.40;;
59093;SDS011;44880;52.814;18.270;2023-02-28T13:35:13;16.00;;;7.20;;
59093;SDS011;44880;52.814;18.270;2023-02-28T13:37:45;15.20;;;6.60;;
59093;SDS011;44880;52.814;18.270;2023-02-28T13:40:29;13.50;;;6.80;;
59093;SDS011;44880;52.814;18.270;2023-02-28T13:43:05;17.50;;;7.10;;
59093;SDS011;44880;52.814;18.270;2023-02-28T13:45:37;13.40;;;6.70;;
59093;SDS011;44880;52.814;18.270;2023-02-28T13:48:19;16.60;;;7.40;;
59093;SDS011;44880;52.814;18.270;2023-02-28T13:50:53;15.90;;;7.40;;
59093;SDS011;44880;52.814;18.270;2023-02-28T13:53:38;14.70;;;7.30;;
59093;SDS011;44880;52.814;18.270;2023-02-28T13:56:23;14.80;;;7.20;;
59093;SDS011;44880;52.814;18.270;2023-02-28T13:59:02;15.20;;;7.30;;
59093;SDS011;44880;52.814;18.270;2023-02-28T14:04:50;16.80;;;8.40;;
59093;SDS011;44880;52.814;18.270;2023-02-28T14:07:28;15.80;;;8.10;;
59093;SDS011;44880;52.814;18.270;2023-02-28T14:10:01;16.30;;;7.80;;
59093;SDS011;44880;52.814;18.270;2023-02-28T14:15:41;16.40;;;7.90;;
59093;SDS011;44880;52.814;18.270;2023-02-28T14:18:17;18.60;;;8.60;;
59093;SDS011;44880;52.814;18.270;2023-02-28T14:20:52;19.20;;;9.40;;
59093;SDS011;44880;52.814;18.270;2023-02-28T14:23:34;20.60;;;9.60;;
59093;SDS011;44880;52.814;18.270;2023-02-28T14:26:13;20.50;;;9.20;;
59093;SDS011;44880;52.814;18.270;2023-02-28T14:29:00;18.80;;;9.00;;
59093;SDS011;44880;52.814;18.270;2023-02-28T14:31:51;17.40;;;8.50;;
59093;SDS011;44880;52.814;18.270;2023-02-28T14:35:50;17.20;;;9.80;;
59093;SDS011;44880;52.814;18.270;2023-02-28T14:39:26;17.20;;;9.50;;
59093;SDS011;44880;52.814;18.270;2023-02-28T14:41:58;19.70;;;9.80;;
59093;SDS011;44880;52.814;18.270;2023-02-28T14:44:41;18.60;;;9.90;;
59093;SDS011;44880;52.814;18.270;2023-02-28T14:47:13;16.60;;;9.00;;
59093;SDS011;44880;52.814;18.270;2023-02-28T14:49:44;17.80;;;10.00;;
59093;SDS011;44880;52.814;18.270;2023-02-28T14:52:14;18.30;;;9.50;;
59093;SDS011;44880;52.814;18.270;2023-02-28T14:54:51;19.90;;;10.20;;
59093;SDS011;44880;52.814;18.270;2023-02-28T14:57:23;17.80;;;9.10;;
59093;SDS011;44880;52.814;18.270;2023-02-28T15:00:03;17.20;;;8.80;;
59093;SDS011;44880;52.814;18.270;2023-02-28T15:02:41;16.50;;;8.40;;
59093;SDS011;44880;52.814;18.270;2023-02-28T15:05:19;14.70;;;8.10;;
59093;SDS011;44880;52.814;18.270;2023-02-28T15:08:01;16.00;;;8.60;;
59093;SDS011;44880;52.814;18.270;2023-02-28T15:10:49;16.10;;;8.40;;
59093;SDS011;44880;52.814;18.270;2023-02-28T15:13:21;18.70;;;10.90;;
59093;SDS011;44880;52.814;18.270;2023-02-28T15:16:00;16.50;;;9.00;;
59093;SDS011;44880;52.814;18.270;2023-02-28T15:18:39;18.30;;;10.30;;
59093;SDS011;44880;52.814;18.270;2023-02-28T15:21:16;18.10;;;10.20;;
59093;SDS011;44880;52.814;18.270;2023-02-28T15:23:52;24.70;;;14.50;;
59093;SDS011;44880;52.814;18.270;2023-02-28T15:26:37;19.00;;;11.10;;
59093;SDS011;44880;52.814;18.270;2023-02-28T15:29:11;21.00;;;11.50;;
59093;SDS011;44880;52.814;18.270;2023-02-28T15:31:43;24.20;;;14.80;;
59093;SDS011;44880;52.814;18.270;2023-02-28T15:34:19;18.60;;;12.30;;
59093;SDS011;44880;52.814;18.270;2023-02-28T15:36:50;18.70;;;9.80;;
59093;SDS011;44880;52.814;18.270;2023-02-28T15:39:21;17.90;;;10.10;;
59093;SDS011;44880;52.814;18.270;2023-02-28T15:44:39;19.70;;;9.30;;
59093;SDS011;44880;52.814;18.270;2023-02-28T15:47:14;19.00;;;10.50;;